sensor_id;sensor_type;location;lat;lon;timestamp;P1;durP1;ratioP1;P2;durP2;ratioP2
60919;SDS011;59039;52.108;19.942;2022-10-10T00:00:40;34.10;;;19.70;;
60919;SDS011;59039;52.108;19.942;2022-10-10T00:03:06;36.00;;;20.00;;
60919;SDS011;59039;52.108;19.942;2022-10-10T00:05:33;36.70;;;20.10;;
60919;SDS011;59039;52.108;19.942;2022-10-10T00:08:00;33.40;;;19.30;;
60919;SDS011;59039;52.108;19.942;2022-10-10T00:10:25;32.20;;;18.50;;
60919;SDS011;59039;52.108;19.942;2022-10-10T00:12:51;38.00;;;19.10;;
60919;SDS011;59039;52.108;19.942;2022-10-10T00:15:16;32.00;;;17.50;;
60919;SDS011;59039;52.108;19.942;2022-10-10T00:17:41;32.80;;;16.40;;
60919;SDS011;59039;52.108;19.942;2022-10-10T00:20:07;27.00;;;16.60;;
60919;SDS011;59039;52.108;19.942;2022-10-10T00:22:37;25.00;;;15.30;;
60919;SDS011;59039;52.108;19.942;2022-10-10T00:25:04;29.20;;;15.90;;
60919;SDS011;59039;52.108;19.942;2022-10-10T00:27:30;31.10;;;17.60;;
60919;SDS011;59039;52.108;19.942;2022-10-10T00:29:55;34.80;;;18.00;;
60919;SDS011;59039;52.108;19.942;2022-10-10T00:32:20;31.10;;;16.70;;
60919;SDS011;59039;52.108;19.942;2022-10-10T00:34:45;32.60;;;17.00;;
60919;SDS011;59039;52.108;19.942;2022-10-10T00:37:11;31.20;;;17.10;;
60919;SDS011;59039;52.108;19.942;2022-10-10T00:39:36;28.90;;;16.20;;
60919;SDS011;59039;52.108;19.942;2022-10-10T00:42:01;33.70;;;17.80;;
60919;SDS011;59039;52.108;19.942;2022-10-10T00:44:26;29.30;;;16.70;;
60919;SDS011;59039;52.108;19.942;2022-10-10T00:46:52;31.80;;;17.30;;
60919;SDS011;59039;52.108;19.942;2022-10-10T00:49:18;30.00;;;17.20;;
60919;SDS011;59039;52.108;19.942;2022-10-10T00:51:49;31.60;;;17.50;;
60919;SDS011;59039;52.108;19.942;2022-10-10T00:54:17;25.70;;;16.40;;
60919;SDS011;59039;52.108;19.942;2022-10-10T00:56:47;36.30;;;17.50;;
60919;SDS011;59039;52.108;19.942;2022-10-10T00:59:17;28.40;;;15.70;;
60919;SDS011;59039;52.108;19.942;2022-10-10T01:01:43;31.10;;;15.50;;
60919;SDS011;59039;52.108;19.942;2022-10-10T01:04:27;36.60;;;16.90;;
60919;SDS011;59039;52.108;19.942;2022-10-10T01:06:58;32.70;;;16.20;;
60919;SDS011;59039;52.108;19.942;2022-10-10T01:09:26;33.00;;;17.10;;
60919;SDS011;59039;52.108;19.942;2022-10-10T01:12:00;28.90;;;16.80;;
60919;SDS011;59039;52.108;19.942;2022-10-10T01:17:25;31.40;;;16.40;;
60919;SDS011;59039;52.108;19.942;2022-10-10T01:20:11;32.50;;;17.50;;
60919;SDS011;59039;52.108;19.942;2022-10-10T01:31:41;26.90;;;17.00;;
60919;SDS011;59039;52.108;19.942;2022-10-10T01:36:52;32.70;;;18.80;;
60919;SDS011;59039;52.108;19.942;2022-10-10T01:45:18;37.80;;;20.20;;
60919;SDS011;59039;52.108;19.942;2022-10-10T01:47:44;35.90;;;19.30;;
60919;SDS011;59039;52.108;19.942;2022-10-10T01:50:11;35.10;;;19.70;;
60919;SDS011;59039;52.108;19.942;2022-10-10T02:01:33;32.70;;;17.50;;
60919;SDS011;59039;52.108;19.942;2022-10-10T02:04:12;28.50;;;16.40;;
60919;SDS011;59039;52.108;19.942;2022-10-10T02:06:48;33.70;;;17.10;;
60919;SDS011;59039;52.108;19.942;2022-10-10T02:09:20;27.40;;;15.50;;
60919;SDS011;59039;52.108;19.942;2022-10-10T02:11:52;26.60;;;16.30;;
60919;SDS011;59039;52.108;19.942;2022-10-10T02:14:21;30.90;;;16.00;;
60919;SDS011;59039;52.108;19.942;2022-10-10T02:16:50;30.60;;;16.50;;
60919;SDS011;59039;52.108;19.942;2022-10-10T02:19:19;27.80;;;15.80;;
60919;SDS011;59039;52.108;19.942;2022-10-10T02:21:46;28.80;;;15.80;;
60919;SDS011;59039;52.108;19.942;2022-10-10T02:24:14;29.70;;;16.10;;
60919;SDS011;59039;52.108;19.942;2022-10-10T02:26:40;26.60;;;16.90;;
60919;SDS011;59039;52.108;19.942;2022-10-10T02:29:10;27.20;;;16.80;;
60919;SDS011;59039;52.108;19.942;2022-10-10T02:31:43;29.50;;;15.60;;
60919;SDS011;59039;52.108;19.942;2022-10-10T02:34:17;24.70;;;14.70;;
60919;SDS011;59039;52.108;19.942;2022-10-10T02:36:48;29.00;;;15.20;;
60919;SDS011;59039;52.108;19.942;2022-10-10T02:39:20;26.20;;;14.50;;
60919;SDS011;59039;52.108;19.942;2022-10-10T02:41:48;25.00;;;15.90;;
60919;SDS011;59039;52.108;19.942;2022-10-10T02:44:16;31.70;;;16.20;;
60919;SDS011;59039;52.108;19.942;2022-10-10T02:46:43;26.40;;;15.20;;
60919;SDS011;59039;52.108;19.942;2022-10-10T02:49:08;29.70;;;15.70;;
60919;SDS011;59039;52.108;19.942;2022-10-10T02:51:34;26.70;;;16.10;;
60919;SDS011;59039;52.108;19.942;2022-10-10T02:54:00;27.30;;;15.90;;
60919;SDS011;59039;52.108;19.942;2022-10-10T02:56:25;26.60;;;15.60;;
60919;SDS011;59039;52.108;19.942;2022-10-10T02:58:50;26.20;;;14.40;;
60919;SDS011;59039;52.108;19.942;2022-10-10T03:01:15;28.10;;;15.70;;
60919;SDS011;59039;52.108;19.942;2022-10-10T03:03:41;29.40;;;14.70;;
60919;SDS011;59039;52.108;19.942;2022-10-10T03:06:06;26.10;;;15.30;;
60919;SDS011;59039;52.108;19.942;2022-10-10T03:08:31;23.90;;;14.30;;
60919;SDS011;59039;52.108;19.942;2022-10-10T03:10:57;26.80;;;13.60;;
60919;SDS011;59039;52.108;19.942;2022-10-10T03:13:24;29.90;;;14.60;;
60919;SDS011;59039;52.108;19.942;2022-10-10T03:15:50;26.30;;;14.30;;
60919;SDS011;59039;52.108;19.942;2022-10-10T03:18:15;24.00;;;14.90;;
60919;SDS011;59039;52.108;19.942;2022-10-10T03:20:43;28.80;;;16.20;;
60919;SDS011;59039;52.108;19.942;2022-10-10T03:23:09;28.80;;;15.20;;
60919;SDS011;59039;52.108;19.942;2022-10-10T03:25:34;27.50;;;14.50;;
60919;SDS011;59039;52.108;19.942;2022-10-10T03:28:04;28.30;;;15.10;;
60919;SDS011;59039;52.108;19.942;2022-10-10T03:30:29;27.80;;;15.80;;
60919;SDS011;59039;52.108;19.942;2022-10-10T03:32:54;25.30;;;15.40;;
60919;SDS011;59039;52.108;19.942;2022-10-10T03:35:19;26.00;;;14.80;;
60919;SDS011;59039;52.108;19.942;2022-10-10T03:37:45;25.40;;;13.90;;
60919;SDS011;59039;52.108;19.942;2022-10-10T03:40:10;23.50;;;13.10;;
60919;SDS011;59039;52.108;19.942;2022-10-10T03:42:35;27.50;;;15.60;;
60919;SDS011;59039;52.108;19.942;2022-10-10T03:45:00;25.10;;;13.30;;
60919;SDS011;59039;52.108;19.942;2022-10-10T03:47:25;31.00;;;15.90;;
60919;SDS011;59039;52.108;19.942;2022-10-10T03:49:50;27.50;;;14.10;;
60919;SDS011;59039;52.108;19.942;2022-10-10T03:52:16;22.40;;;14.70;;
60919;SDS011;59039;52.108;19.942;2022-10-10T03:54:41;24.00;;;14.40;;
60919;SDS011;59039;52.108;19.942;2022-10-10T03:57:06;23.20;;;13.50;;
60919;SDS011;59039;52.108;19.942;2022-10-10T03:59:31;27.80;;;14.70;;
60919;SDS011;59039;52.108;19.942;2022-10-10T04:01:56;25.50;;;13.90;;
60919;SDS011;59039;52.108;19.942;2022-10-10T04:04:21;23.90;;;13.80;;
60919;SDS011;59039;52.108;19.942;2022-10-10T04:06:47;24.10;;;13.60;;
60919;SDS011;59039;52.108;19.942;2022-10-10T04:09:12;23.30;;;13.60;;
60919;SDS011;59039;52.108;19.942;2022-10-10T04:11:37;22.10;;;12.40;;
60919;SDS011;59039;52.108;19.942;2022-10-10T04:14:02;26.70;;;14.10;;
60919;SDS011;59039;52.108;19.942;2022-10-10T04:16:27;22.70;;;13.50;;
60919;SDS011;59039;52.108;19.942;2022-10-10T04:18:52;23.30;;;13.00;;
60919;SDS011;59039;52.108;19.942;2022-10-10T04:21:18;22.70;;;13.90;;
60919;SDS011;59039;52.108;19.942;2022-10-10T04:23:43;27.50;;;14.30;;
60919;SDS011;59039;52.108;19.942;2022-10-10T04:26:08;27.60;;;15.30;;
60919;SDS011;59039;52.108;19.942;2022-10-10T04:28:33;28.00;;;14.90;;
60919;SDS011;59039;52.108;19.942;2022-10-10T04:30:58;25.60;;;13.80;;
60919;SDS011;59039;52.108;19.942;2022-10-10T04:33:24;27.90;;;15.00;;
60919;SDS011;59039;52.108;19.942;2022-10-10T04:35:49;25.90;;;15.70;;
60919;SDS011;59039;52.108;19.942;2022-10-10T04:38:14;22.90;;;13.70;;
60919;SDS011;59039;52.108;19.942;2022-10-10T04:40:40;27.60;;;14.60;;
60919;SDS011;59039;52.108;19.942;2022-10-10T04:43:05;24.40;;;14.40;;
60919;SDS011;59039;52.108;19.942;2022-10-10T04:45:30;23.50;;;14.20;;
60919;SDS011;59039;52.108;19.942;2022-10-10T04:47:55;26.90;;;15.70;;
60919;SDS011;59039;52.108;19.942;2022-10-10T04:50:21;26.70;;;16.00;;
60919;SDS011;59039;52.108;19.942;2022-10-10T04:52:46;24.40;;;14.30;;
60919;SDS011;59039;52.108;19.942;2022-10-10T04:55:12;22.10;;;13.60;;
60919;SDS011;59039;52.108;19.942;2022-10-10T04:57:37;22.60;;;13.40;;
60919;SDS011;59039;52.108;19.942;2022-10-10T05:00:03;23.50;;;14.90;;
60919;SDS011;59039;52.108;19.942;2022-10-10T05:02:29;24.80;;;13.10;;
60919;SDS011;59039;52.108;19.942;2022-10-10T05:04:54;21.90;;;12.70;;
60919;SDS011;59039;52.108;19.942;2022-10-10T05:07:20;25.10;;;13.70;;
60919;SDS011;59039;52.108;19.942;2022-10-10T05:09:45;24.50;;;12.80;;
60919;SDS011;59039;52.108;19.942;2022-10-10T05:12:10;29.30;;;15.90;;
60919;SDS011;59039;52.108;19.942;2022-10-10T05:14:35;33.20;;;18.30;;
60919;SDS011;59039;52.108;19.942;2022-10-10T05:17:00;29.90;;;17.40;;
60919;SDS011;59039;52.108;19.942;2022-10-10T05:19:25;32.60;;;17.90;;
60919;SDS011;59039;52.108;19.942;2022-10-10T05:21:51;36.30;;;24.40;;
60919;SDS011;59039;52.108;19.942;2022-10-10T05:24:16;40.60;;;24.90;;
60919;SDS011;59039;52.108;19.942;2022-10-10T05:26:41;42.90;;;29.00;;
60919;SDS011;59039;52.108;19.942;2022-10-10T05:29:06;51.20;;;33.00;;
60919;SDS011;59039;52.108;19.942;2022-10-10T05:31:31;41.70;;;29.00;;
60919;SDS011;59039;52.108;19.942;2022-10-10T05:33:57;50.50;;;35.10;;
60919;SDS011;59039;52.108;19.942;2022-10-10T05:36:22;50.80;;;30.90;;
60919;SDS011;59039;52.108;19.942;2022-10-10T05:38:47;39.40;;;25.20;;
60919;SDS011;59039;52.108;19.942;2022-10-10T05:41:12;38.20;;;21.70;;
60919;SDS011;59039;52.108;19.942;2022-10-10T05:43:37;30.60;;;16.50;;
60919;SDS011;59039;52.108;19.942;2022-10-10T05:46:03;28.30;;;15.10;;
60919;SDS011;59039;52.108;19.942;2022-10-10T05:48:28;24.70;;;13.90;;
60919;SDS011;59039;52.108;19.942;2022-10-10T05:50:54;27.20;;;14.70;;
60919;SDS011;59039;52.108;19.942;2022-10-10T05:53:22;27.20;;;14.70;;
60919;SDS011;59039;52.108;19.942;2022-10-10T05:55:48;30.20;;;16.00;;
60919;SDS011;59039;52.108;19.942;2022-10-10T05:58:14;29.20;;;16.30;;
60919;SDS011;59039;52.108;19.942;2022-10-10T06:00:40;25.90;;;13.40;;
60919;SDS011;59039;52.108;19.942;2022-10-10T06:03:06;25.30;;;14.00;;
60919;SDS011;59039;52.108;19.942;2022-10-10T06:05:31;26.50;;;13.50;;
60919;SDS011;59039;52.108;19.942;2022-10-10T06:07:57;31.00;;;15.30;;
60919;SDS011;59039;52.108;19.942;2022-10-10T06:10:22;31.30;;;14.80;;
60919;SDS011;59039;52.108;19.942;2022-10-10T06:12:47;30.50;;;15.60;;
60919;SDS011;59039;52.108;19.942;2022-10-10T06:15:12;30.80;;;15.10;;
60919;SDS011;59039;52.108;19.942;2022-10-10T06:17:37;27.80;;;14.30;;
60919;SDS011;59039;52.108;19.942;2022-10-10T06:20:03;29.90;;;15.30;;
60919;SDS011;59039;52.108;19.942;2022-10-10T06:22:28;33.40;;;15.30;;
60919;SDS011;59039;52.108;19.942;2022-10-10T06:24:53;28.20;;;13.90;;
60919;SDS011;59039;52.108;19.942;2022-10-10T06:27:21;29.90;;;15.40;;
60919;SDS011;59039;52.108;19.942;2022-10-10T06:29:46;29.80;;;13.90;;
60919;SDS011;59039;52.108;19.942;2022-10-10T06:32:11;26.80;;;13.80;;
60919;SDS011;59039;52.108;19.942;2022-10-10T06:34:36;23.60;;;12.30;;
60919;SDS011;59039;52.108;19.942;2022-10-10T06:37:02;21.60;;;12.20;;
60919;SDS011;59039;52.108;19.942;2022-10-10T06:39:27;27.40;;;12.70;;
60919;SDS011;59039;52.108;19.942;2022-10-10T06:42:02;33.10;;;15.20;;
60919;SDS011;59039;52.108;19.942;2022-10-10T06:44:36;41.20;;;15.40;;
60919;SDS011;59039;52.108;19.942;2022-10-10T06:47:01;32.70;;;14.50;;
60919;SDS011;59039;52.108;19.942;2022-10-10T06:52:21;26.80;;;13.90;;
60919;SDS011;59039;52.108;19.942;2022-10-10T06:54:47;24.30;;;13.90;;
60919;SDS011;59039;52.108;19.942;2022-10-10T06:57:21;27.00;;;14.50;;
60919;SDS011;59039;52.108;19.942;2022-10-10T07:00:06;31.20;;;15.90;;
60919;SDS011;59039;52.108;19.942;2022-10-10T07:02:32;32.60;;;17.60;;
60919;SDS011;59039;52.108;19.942;2022-10-10T07:05:06;39.60;;;18.00;;
60919;SDS011;59039;52.108;19.942;2022-10-10T07:07:35;43.00;;;18.40;;
60919;SDS011;59039;52.108;19.942;2022-10-10T07:10:04;26.00;;;14.30;;
60919;SDS011;59039;52.108;19.942;2022-10-10T07:12:34;32.40;;;16.50;;
60919;SDS011;59039;52.108;19.942;2022-10-10T07:14:59;36.40;;;15.30;;
60919;SDS011;59039;52.108;19.942;2022-10-10T07:17:32;35.20;;;17.50;;
60919;SDS011;59039;52.108;19.942;2022-10-10T07:19:58;34.10;;;16.80;;
60919;SDS011;59039;52.108;19.942;2022-10-10T07:22:31;31.00;;;18.10;;
60919;SDS011;59039;52.108;19.942;2022-10-10T07:24:59;25.90;;;15.10;;
60919;SDS011;59039;52.108;19.942;2022-10-10T07:27:25;34.70;;;15.90;;
60919;SDS011;59039;52.108;19.942;2022-10-10T07:29:53;25.60;;;14.40;;
60919;SDS011;59039;52.108;19.942;2022-10-10T07:32:21;34.40;;;16.70;;
60919;SDS011;59039;52.108;19.942;2022-10-10T07:35:04;29.80;;;14.80;;
60919;SDS011;59039;52.108;19.942;2022-10-10T07:37:38;29.50;;;14.30;;
60919;SDS011;59039;52.108;19.942;2022-10-10T07:40:33;25.70;;;14.10;;
60919;SDS011;59039;52.108;19.942;2022-10-10T07:43:18;26.00;;;13.00;;
60919;SDS011;59039;52.108;19.942;2022-10-10T07:46:11;29.80;;;13.20;;
60919;SDS011;59039;52.108;19.942;2022-10-10T07:49:01;25.40;;;13.80;;
60919;SDS011;59039;52.108;19.942;2022-10-10T07:54:28;23.20;;;11.30;;
60919;SDS011;59039;52.108;19.942;2022-10-10T07:56:54;26.80;;;14.40;;
60919;SDS011;59039;52.108;19.942;2022-10-10T07:59:20;22.50;;;11.80;;
60919;SDS011;59039;52.108;19.942;2022-10-10T08:01:45;24.90;;;13.10;;
60919;SDS011;59039;52.108;19.942;2022-10-10T08:04:10;22.50;;;12.50;;
60919;SDS011;59039;52.108;19.942;2022-10-10T08:06:36;31.10;;;14.40;;
60919;SDS011;59039;52.108;19.942;2022-10-10T08:09:01;34.20;;;16.60;;
60919;SDS011;59039;52.108;19.942;2022-10-10T08:11:26;39.90;;;20.20;;
60919;SDS011;59039;52.108;19.942;2022-10-10T08:13:51;39.70;;;18.90;;
60919;SDS011;59039;52.108;19.942;2022-10-10T08:16:16;35.30;;;16.20;;
60919;SDS011;59039;52.108;19.942;2022-10-10T08:21:26;21.80;;;11.70;;
60919;SDS011;59039;52.108;19.942;2022-10-10T08:23:52;18.20;;;10.80;;
60919;SDS011;59039;52.108;19.942;2022-10-10T08:26:17;21.90;;;10.20;;
60919;SDS011;59039;52.108;19.942;2022-10-10T08:28:43;28.20;;;13.10;;
60919;SDS011;59039;52.108;19.942;2022-10-10T08:31:09;22.20;;;11.80;;
60919;SDS011;59039;52.108;19.942;2022-10-10T08:33:37;18.40;;;10.10;;
60919;SDS011;59039;52.108;19.942;2022-10-10T08:36:03;18.60;;;9.60;;
60919;SDS011;59039;52.108;19.942;2022-10-10T08:38:33;18.00;;;11.10;;
60919;SDS011;59039;52.108;19.942;2022-10-10T08:40:59;21.30;;;11.20;;
60919;SDS011;59039;52.108;19.942;2022-10-10T08:43:40;15.40;;;9.10;;
60919;SDS011;59039;52.108;19.942;2022-10-10T08:46:23;16.70;;;9.00;;
60919;SDS011;59039;52.108;19.942;2022-10-10T08:48:57;14.90;;;8.80;;
60919;SDS011;59039;52.108;19.942;2022-10-10T08:51:30;19.30;;;9.70;;
60919;SDS011;59039;52.108;19.942;2022-10-10T08:53:58;16.30;;;9.10;;
60919;SDS011;59039;52.108;19.942;2022-10-10T08:56:28;11.90;;;7.60;;
60919;SDS011;59039;52.108;19.942;2022-10-10T08:59:03;13.90;;;8.40;;
60919;SDS011;59039;52.108;19.942;2022-10-10T09:01:34;15.20;;;8.80;;
60919;SDS011;59039;52.108;19.942;2022-10-10T09:04:02;18.10;;;8.30;;
60919;SDS011;59039;52.108;19.942;2022-10-10T09:09:07;16.40;;;7.90;;
60919;SDS011;59039;52.108;19.942;2022-10-10T09:14:48;13.10;;;7.10;;
60919;SDS011;59039;52.108;19.942;2022-10-10T09:17:35;10.30;;;6.60;;
60919;SDS011;59039;52.108;19.942;2022-10-10T09:25:56;11.90;;;6.80;;
60919;SDS011;59039;52.108;19.942;2022-10-10T09:31:16;10.90;;;5.60;;
60919;SDS011;59039;52.108;19.942;2022-10-10T09:33:43;10.20;;;5.80;;
60919;SDS011;59039;52.108;19.942;2022-10-10T09:36:16;10.70;;;6.10;;
60919;SDS011;59039;52.108;19.942;2022-10-10T09:38:49;7.30;;;5.20;;
60919;SDS011;59039;52.108;19.942;2022-10-10T09:41:24;9.80;;;5.60;;
60919;SDS011;59039;52.108;19.942;2022-10-10T09:43:56;8.90;;;4.90;;
60919;SDS011;59039;52.108;19.942;2022-10-10T09:46:23;10.40;;;5.30;;
60919;SDS011;59039;52.108;19.942;2022-10-10T09:48:49;10.80;;;6.50;;
60919;SDS011;59039;52.108;19.942;2022-10-10T09:51:16;7.40;;;5.60;;
60919;SDS011;59039;52.108;19.942;2022-10-10T09:53:43;9.80;;;5.30;;
60919;SDS011;59039;52.108;19.942;2022-10-10T09:56:14;10.40;;;5.30;;
60919;SDS011;59039;52.108;19.942;2022-10-10T09:58:43;12.50;;;6.70;;
60919;SDS011;59039;52.108;19.942;2022-10-10T10:06:37;8.60;;;5.30;;
60919;SDS011;59039;52.108;19.942;2022-10-10T10:09:03;7.90;;;5.10;;
60919;SDS011;59039;52.108;19.942;2022-10-10T10:11:34;8.40;;;5.10;;
60919;SDS011;59039;52.108;19.942;2022-10-10T10:14:01;8.20;;;5.30;;
60919;SDS011;59039;52.108;19.942;2022-10-10T10:16:37;12.70;;;6.30;;
60919;SDS011;59039;52.108;19.942;2022-10-10T10:19:03;9.10;;;5.50;;
60919;SDS011;59039;52.108;19.942;2022-10-10T10:21:30;11.70;;;5.50;;
60919;SDS011;59039;52.108;19.942;2022-10-10T10:24:19;12.50;;;6.30;;
60919;SDS011;59039;52.108;19.942;2022-10-10T10:26:46;9.80;;;6.30;;
60919;SDS011;59039;52.108;19.942;2022-10-10T10:32:07;10.10;;;6.40;;
60919;SDS011;59039;52.108;19.942;2022-10-10T10:34:48;12.80;;;5.80;;
60919;SDS011;59039;52.108;19.942;2022-10-10T10:37:21;9.20;;;5.60;;
60919;SDS011;59039;52.108;19.942;2022-10-10T10:40:02;7.80;;;5.60;;
60919;SDS011;59039;52.108;19.942;2022-10-10T10:48:26;9.90;;;5.60;;
60919;SDS011;59039;52.108;19.942;2022-10-10T10:51:02;9.40;;;5.40;;
60919;SDS011;59039;52.108;19.942;2022-10-10T10:57:12;9.20;;;6.00;;
60919;SDS011;59039;52.108;19.942;2022-10-10T10:59:51;11.40;;;5.10;;
60919;SDS011;59039;52.108;19.942;2022-10-10T11:10:27;9.10;;;5.30;;
60919;SDS011;59039;52.108;19.942;2022-10-10T11:15:32;10.10;;;6.10;;
60919;SDS011;59039;52.108;19.942;2022-10-10T11:18:13;12.40;;;5.90;;
60919;SDS011;59039;52.108;19.942;2022-10-10T11:20:57;12.00;;;5.90;;
60919;SDS011;59039;52.108;19.942;2022-10-10T11:23:29;7.10;;;5.00;;
60919;SDS011;59039;52.108;19.942;2022-10-10T11:26:09;11.20;;;5.30;;
60919;SDS011;59039;52.108;19.942;2022-10-10T11:28:46;10.60;;;6.00;;
60919;SDS011;59039;52.108;19.942;2022-10-10T11:31:20;9.20;;;5.40;;
60919;SDS011;59039;52.108;19.942;2022-10-10T11:33:52;8.10;;;5.30;;
60919;SDS011;59039;52.108;19.942;2022-10-10T11:36:28;9.40;;;5.70;;
60919;SDS011;59039;52.108;19.942;2022-10-10T11:39:01;11.20;;;6.00;;
60919;SDS011;59039;52.108;19.942;2022-10-10T11:44:15;8.90;;;4.40;;
60919;SDS011;59039;52.108;19.942;2022-10-10T11:46:58;7.70;;;4.90;;
60919;SDS011;59039;52.108;19.942;2022-10-10T11:49:35;7.60;;;4.70;;
60919;SDS011;59039;52.108;19.942;2022-10-10T11:52:25;8.70;;;4.80;;
60919;SDS011;59039;52.108;19.942;2022-10-10T11:54:58;10.00;;;5.60;;
60919;SDS011;59039;52.108;19.942;2022-10-10T11:57:40;6.80;;;4.60;;
60919;SDS011;59039;52.108;19.942;2022-10-10T12:00:11;6.90;;;4.30;;
60919;SDS011;59039;52.108;19.942;2022-10-10T12:02:38;9.30;;;4.70;;
60919;SDS011;59039;52.108;19.942;2022-10-10T12:05:06;8.50;;;4.40;;
60919;SDS011;59039;52.108;19.942;2022-10-10T12:10:30;9.00;;;4.50;;
60919;SDS011;59039;52.108;19.942;2022-10-10T12:16:01;7.20;;;5.00;;
60919;SDS011;59039;52.108;19.942;2022-10-10T12:18:31;11.70;;;6.30;;
60919;SDS011;59039;52.108;19.942;2022-10-10T12:21:06;7.10;;;4.60;;
60919;SDS011;59039;52.108;19.942;2022-10-10T12:23:34;7.20;;;4.50;;
60919;SDS011;59039;52.108;19.942;2022-10-10T12:25:59;5.60;;;4.00;;
60919;SDS011;59039;52.108;19.942;2022-10-10T12:28:26;6.90;;;4.10;;
60919;SDS011;59039;52.108;19.942;2022-10-10T12:44:18;6.10;;;3.80;;
60919;SDS011;59039;52.108;19.942;2022-10-10T12:46:43;6.10;;;4.20;;
60919;SDS011;59039;52.108;19.942;2022-10-10T12:49:14;5.00;;;3.50;;
60919;SDS011;59039;52.108;19.942;2022-10-10T12:51:44;8.10;;;4.10;;
60919;SDS011;59039;52.108;19.942;2022-10-10T12:54:24;7.20;;;4.60;;
60919;SDS011;59039;52.108;19.942;2022-10-10T12:57:29;7.80;;;4.00;;
60919;SDS011;59039;52.108;19.942;2022-10-10T13:00:16;7.00;;;3.50;;
60919;SDS011;59039;52.108;19.942;2022-10-10T13:02:45;5.50;;;3.60;;
60919;SDS011;59039;52.108;19.942;2022-10-10T13:05:17;5.70;;;3.60;;
60919;SDS011;59039;52.108;19.942;2022-10-10T13:10:21;7.30;;;3.60;;
60919;SDS011;59039;52.108;19.942;2022-10-10T13:13:04;5.90;;;3.50;;
60919;SDS011;59039;52.108;19.942;2022-10-10T13:15:31;7.20;;;4.10;;
60919;SDS011;59039;52.108;19.942;2022-10-10T13:17:57;6.60;;;4.20;;
60919;SDS011;59039;52.108;19.942;2022-10-10T13:20:30;5.00;;;3.70;;
60919;SDS011;59039;52.108;19.942;2022-10-10T13:22:56;5.60;;;3.70;;
60919;SDS011;59039;52.108;19.942;2022-10-10T13:25:22;5.20;;;3.80;;
60919;SDS011;59039;52.108;19.942;2022-10-10T13:27:48;5.60;;;3.40;;
60919;SDS011;59039;52.108;19.942;2022-10-10T13:30:17;6.70;;;3.60;;
60919;SDS011;59039;52.108;19.942;2022-10-10T13:32:44;6.00;;;4.10;;
60919;SDS011;59039;52.108;19.942;2022-10-10T13:35:19;5.60;;;3.70;;
60919;SDS011;59039;52.108;19.942;2022-10-10T13:37:47;6.60;;;3.80;;
60919;SDS011;59039;52.108;19.942;2022-10-10T13:40:18;7.40;;;3.90;;
60919;SDS011;59039;52.108;19.942;2022-10-10T13:42:45;5.80;;;3.80;;
60919;SDS011;59039;52.108;19.942;2022-10-10T13:47:50;8.60;;;4.00;;
60919;SDS011;59039;52.108;19.942;2022-10-10T13:50:48;5.50;;;3.70;;
60919;SDS011;59039;52.108;19.942;2022-10-10T13:55:46;7.60;;;3.60;;
60919;SDS011;59039;52.108;19.942;2022-10-10T13:58:12;7.60;;;3.60;;
60919;SDS011;59039;52.108;19.942;2022-10-10T14:00:38;9.00;;;4.00;;
60919;SDS011;59039;52.108;19.942;2022-10-10T14:03:11;25.20;;;12.20;;
60919;SDS011;59039;52.108;19.942;2022-10-10T14:05:41;14.90;;;8.50;;
60919;SDS011;59039;52.108;19.942;2022-10-10T14:08:16;12.70;;;9.20;;
60919;SDS011;59039;52.108;19.942;2022-10-10T14:10:54;10.20;;;6.20;;
60919;SDS011;59039;52.108;19.942;2022-10-10T14:13:21;8.70;;;6.70;;
60919;SDS011;59039;52.108;19.942;2022-10-10T14:15:46;7.30;;;5.60;;
60919;SDS011;59039;52.108;19.942;2022-10-10T14:18:16;7.50;;;4.90;;
60919;SDS011;59039;52.108;19.942;2022-10-10T14:20:44;13.90;;;7.10;;
60919;SDS011;59039;52.108;19.942;2022-10-10T14:23:11;13.20;;;10.50;;
60919;SDS011;59039;52.108;19.942;2022-10-10T14:25:37;7.50;;;6.10;;
60919;SDS011;59039;52.108;19.942;2022-10-10T14:28:05;24.90;;;13.30;;
60919;SDS011;59039;52.108;19.942;2022-10-10T14:30:31;13.80;;;8.30;;
60919;SDS011;59039;52.108;19.942;2022-10-10T14:32:56;9.00;;;5.00;;
60919;SDS011;59039;52.108;19.942;2022-10-10T14:35:21;8.80;;;4.30;;
60919;SDS011;59039;52.108;19.942;2022-10-10T14:37:46;5.50;;;4.00;;
60919;SDS011;59039;52.108;19.942;2022-10-10T14:40:18;6.20;;;3.90;;
60919;SDS011;59039;52.108;19.942;2022-10-10T14:42:45;5.30;;;3.70;;
60919;SDS011;59039;52.108;19.942;2022-10-10T14:45:11;9.20;;;6.10;;
60919;SDS011;59039;52.108;19.942;2022-10-10T14:47:38;9.80;;;6.50;;
60919;SDS011;59039;52.108;19.942;2022-10-10T14:50:09;8.20;;;5.20;;
60919;SDS011;59039;52.108;19.942;2022-10-10T14:52:41;7.50;;;4.30;;
60919;SDS011;59039;52.108;19.942;2022-10-10T14:55:06;8.80;;;5.20;;
60919;SDS011;59039;52.108;19.942;2022-10-10T14:57:32;7.10;;;4.20;;
60919;SDS011;59039;52.108;19.942;2022-10-10T14:59:57;8.50;;;4.60;;
60919;SDS011;59039;52.108;19.942;2022-10-10T15:02:23;9.90;;;5.70;;
60919;SDS011;59039;52.108;19.942;2022-10-10T15:04:48;8.50;;;5.30;;
60919;SDS011;59039;52.108;19.942;2022-10-10T15:07:14;8.00;;;5.00;;
60919;SDS011;59039;52.108;19.942;2022-10-10T15:09:39;10.10;;;6.00;;
60919;SDS011;59039;52.108;19.942;2022-10-10T15:12:05;10.30;;;6.10;;
60919;SDS011;59039;52.108;19.942;2022-10-10T15:14:30;12.70;;;6.50;;
60919;SDS011;59039;52.108;19.942;2022-10-10T15:16:55;11.40;;;6.30;;
60919;SDS011;59039;52.108;19.942;2022-10-10T15:19:20;14.10;;;7.30;;
60919;SDS011;59039;52.108;19.942;2022-10-10T15:21:46;16.90;;;9.30;;
60919;SDS011;59039;52.108;19.942;2022-10-10T15:24:11;11.20;;;7.20;;
60919;SDS011;59039;52.108;19.942;2022-10-10T15:26:36;10.40;;;7.40;;
60919;SDS011;59039;52.108;19.942;2022-10-10T15:29:01;24.90;;;17.20;;
60919;SDS011;59039;52.108;19.942;2022-10-10T15:31:27;23.70;;;15.70;;
60919;SDS011;59039;52.108;19.942;2022-10-10T15:33:53;17.80;;;11.50;;
60919;SDS011;59039;52.108;19.942;2022-10-10T15:36:19;13.60;;;9.40;;
60919;SDS011;59039;52.108;19.942;2022-10-10T15:38:44;16.70;;;8.70;;
60919;SDS011;59039;52.108;19.942;2022-10-10T15:41:09;22.20;;;10.60;;
60919;SDS011;59039;52.108;19.942;2022-10-10T15:43:40;17.30;;;10.70;;
60919;SDS011;59039;52.108;19.942;2022-10-10T15:46:15;19.30;;;12.10;;
60919;SDS011;59039;52.108;19.942;2022-10-10T15:48:40;14.00;;;9.60;;
60919;SDS011;59039;52.108;19.942;2022-10-10T15:51:06;15.40;;;10.10;;
60919;SDS011;59039;52.108;19.942;2022-10-10T15:53:32;10.20;;;6.80;;
60919;SDS011;59039;52.108;19.942;2022-10-10T15:55:58;9.30;;;6.70;;
60919;SDS011;59039;52.108;19.942;2022-10-10T15:58:23;12.60;;;7.50;;
60919;SDS011;59039;52.108;19.942;2022-10-10T16:00:48;13.30;;;6.40;;
60919;SDS011;59039;52.108;19.942;2022-10-10T16:03:14;13.10;;;7.00;;
60919;SDS011;59039;52.108;19.942;2022-10-10T16:05:48;14.60;;;7.70;;
60919;SDS011;59039;52.108;19.942;2022-10-10T16:08:13;13.10;;;7.20;;
60919;SDS011;59039;52.108;19.942;2022-10-10T16:10:39;17.00;;;7.40;;
60919;SDS011;59039;52.108;19.942;2022-10-10T16:13:06;11.60;;;7.10;;
60919;SDS011;59039;52.108;19.942;2022-10-10T16:15:31;12.80;;;7.30;;